createdAt,value
2018-03-25T00:00:46.439Z,0
2018-03-25T00:01:46.220Z,0
2018-03-25T00:02:46.642Z,0
2018-03-25T00:03:46.173Z,0
2018-03-25T00:04:46.634Z,0
2018-03-25T00:05:46.441Z,0
2018-03-25T00:06:46.607Z,0
2018-03-25T00:07:46.151Z,0
2018-03-25T00:08:46.589Z,0
2018-03-25T00:09:46.590Z,0
2018-03-25T00:10:46.631Z,0
2018-03-25T00:11:45.849Z,0
2018-03-25T00:12:46.318Z,0
2018-03-25T00:13:46.298Z,0
2018-03-25T00:14:46.323Z,0
2018-03-25T00:15:46.267Z,0
2018-03-25T00:16:46.655Z,0
2018-03-25T00:17:46.447Z,0
2018-03-25T00:18:46.534Z,0
2018-03-25T00:19:46.268Z,0
2018-03-25T00:20:46.264Z,0
2018-03-25T00:21:46.300Z,0
2018-03-25T00:22:46.202Z,0
2018-03-25T00:23:46.512Z,0
2018-03-25T00:24:45.943Z,0
2018-03-25T00:25:46.194Z,0
2018-03-25T00:26:46.427Z,0
2018-03-25T00:27:46.073Z,0
2018-03-25T00:28:46.413Z,0
2018-03-25T00:29:46.416Z,0
2018-03-25T00:30:45.895Z,0
2018-03-25T00:31:45.864Z,0
2018-03-25T00:32:46.174Z,0
2018-03-25T00:33:46.399Z,0
2018-03-25T00:34:46.116Z,0
2018-03-25T00:35:46.365Z,0
2018-03-25T00:36:46.338Z,0
2018-03-25T00:37:46.336Z,0
2018-03-25T00:38:46.079Z,0
2018-03-25T00:39:46.107Z,0
2018-03-25T00:40:46.297Z,0
2018-03-25T00:41:46.061Z,0
2018-03-25T00:42:46.028Z,0
2018-03-25T00:43:46.028Z,0
2018-03-25T00:44:45.766Z,0
2018-03-25T00:45:46.256Z,0
2018-03-25T00:46:45.767Z,0
2018-03-25T00:47:47.828Z,0
2018-03-25T00:48:45.489Z,0
2018-03-25T00:49:45.440Z,0
2018-03-25T00:50:45.990Z,0
2018-03-25T00:51:45.942Z,0
2018-03-25T00:52:45.416Z,0
2018-03-25T00:53:45.688Z,0
2018-03-25T00:54:45.986Z,0
2018-03-25T00:55:46.151Z,0
2018-03-25T00:56:46.145Z,0
2018-03-25T00:57:45.913Z,0
2018-03-25T00:58:46.131Z,0
2018-03-25T00:59:45.111Z,0
2018-03-25T01:00:46.127Z,0
2018-03-25T01:01:45.328Z,0
2018-03-25T01:02:45.908Z,0
2018-03-25T01:03:45.848Z,0
2018-03-25T01:04:45.594Z,0
2018-03-25T01:05:45.568Z,0
2018-03-25T01:06:45.555Z,0
2018-03-25T01:07:46.255Z,0
2018-03-25T01:08:46.062Z,0
2018-03-25T01:09:46.046Z,0
2018-03-25T01:10:45.772Z,0
2018-03-25T01:11:45.487Z,0
2018-03-25T01:12:45.489Z,0
2018-03-25T01:13:46.038Z,0
2018-03-25T01:14:46.002Z,0
2018-03-25T01:15:45.446Z,0
2018-03-25T01:16:45.457Z,0
2018-03-25T01:17:46.219Z,0
2018-03-25T01:18:45.679Z,0
2018-03-25T01:19:45.968Z,0
2018-03-25T01:20:45.927Z,0
2018-03-25T01:21:45.917Z,0
2018-03-25T01:22:45.912Z,0
2018-03-25T01:23:45.632Z,0
2018-03-25T01:24:45.644Z,0
2018-03-25T01:25:45.980Z,0
2018-03-25T01:26:45.870Z,0
2018-03-25T01:27:45.890Z,0
2018-03-25T01:28:45.581Z,0
2018-03-25T01:29:45.326Z,0
2018-03-25T01:30:45.323Z,0
2018-03-25T01:31:45.552Z,0
2018-03-25T01:32:45.988Z,0
2018-03-25T01:33:45.808Z,0
2018-03-25T01:34:45.535Z,0
2018-03-25T01:35:45.790Z,0
2018-03-25T01:36:45.561Z,0
2018-03-25T01:37:45.249Z,0
2018-03-25T01:38:45.235Z,0
2018-03-25T01:39:45.498Z,0
2018-03-25T01:40:45.477Z,0
2018-03-25T01:41:45.741Z,0
2018-03-25T01:42:45.459Z,0
2018-03-25T01:43:45.190Z,0
2018-03-25T01:44:45.436Z,0
2018-03-25T01:45:45.678Z,0
2018-03-25T01:46:45.673Z,0
2018-03-25T01:47:45.710Z,0
2018-03-25T01:48:45.663Z,0
2018-03-25T01:49:45.673Z,0
2018-03-25T01:50:44.864Z,0
2018-03-25T01:51:45.615Z,0
2018-03-25T01:52:45.371Z,0
2018-03-25T01:53:45.338Z,0
2018-03-25T01:54:45.088Z,0
2018-03-25T01:55:45.598Z,0
2018-03-25T01:56:45.314Z,0
2018-03-25T01:57:45.552Z,0
2018-03-25T01:58:45.054Z,0
2018-03-25T01:59:45.284Z,0
2018-03-25T02:00:45.288Z,0
2018-03-25T02:01:45.524Z,0
2018-03-25T02:02:45.310Z,0
2018-03-25T02:03:45.509Z,0
2018-03-25T02:04:45.230Z,0
2018-03-25T02:05:44.968Z,0
2018-03-25T02:06:45.209Z,0
2018-03-25T02:07:45.468Z,0
2018-03-25T02:08:45.223Z,0
2018-03-25T02:09:45.443Z,0
2018-03-25T02:10:45.172Z,0
2018-03-25T02:11:45.235Z,0
2018-03-25T02:12:45.181Z,0
2018-03-25T02:13:45.426Z,0
2018-03-25T02:14:45.403Z,0
2018-03-25T02:15:45.129Z,0
2018-03-25T02:16:45.384Z,0
2018-03-25T02:17:44.850Z,0
2018-03-25T02:18:46.693Z,0
2018-03-25T02:19:45.092Z,0
2018-03-25T02:20:44.827Z,0
2018-03-25T02:21:45.068Z,0
2018-03-25T02:22:45.051Z,0
2018-03-25T02:23:45.304Z,0
2018-03-25T02:24:45.296Z,0
2018-03-25T02:25:45.031Z,0
2018-03-25T02:26:45.285Z,0
2018-03-25T02:27:45.267Z,0
2018-03-25T02:28:45.008Z,0
2018-03-25T02:29:44.475Z,0
2018-03-25T02:30:45.291Z,0
2018-03-25T02:31:45.261Z,0
2018-03-25T02:32:45.042Z,0
2018-03-25T02:33:45.271Z,0
2018-03-25T02:34:44.952Z,0
2018-03-25T02:35:44.928Z,0
2018-03-25T02:36:44.666Z,0
2018-03-25T02:37:44.901Z,0
2018-03-25T02:38:44.922Z,0
2018-03-25T02:39:44.987Z,0
2018-03-25T02:40:44.880Z,0
2018-03-25T02:41:45.156Z,0
2018-03-25T02:42:45.219Z,0
2018-03-25T02:43:45.109Z,0
2018-03-25T02:44:45.127Z,0
2018-03-25T02:45:44.577Z,0
2018-03-25T02:46:45.081Z,0
2018-03-25T02:47:45.112Z,0
2018-03-25T02:48:45.349Z,0
2018-03-25T02:49:44.810Z,0
2018-03-25T02:50:44.816Z,0
2018-03-25T02:51:45.045Z,0
2018-03-25T02:52:44.794Z,0
2018-03-25T02:53:44.749Z,0
2018-03-25T02:54:44.510Z,0
2018-03-25T02:55:44.990Z,0
2018-03-25T02:56:44.987Z,0
2018-03-25T02:57:44.451Z,0
2018-03-25T02:58:44.974Z,0
2018-03-25T02:59:44.950Z,0
2018-03-25T03:00:44.961Z,0
2018-03-25T03:01:44.917Z,0
2018-03-25T03:02:45.159Z,0
2018-03-25T03:03:44.464Z,0
2018-03-25T03:04:44.647Z,0
2018-03-25T03:05:44.627Z,0
2018-03-25T03:06:44.620Z,0
2018-03-25T03:07:44.622Z,0
2018-03-25T03:08:44.338Z,0
2018-03-25T03:09:44.588Z,0
2018-03-25T03:10:44.823Z,0
2018-03-25T03:11:44.818Z,0
2018-03-25T03:12:44.561Z,0
2018-03-25T03:13:44.812Z,0
2018-03-25T03:14:44.776Z,0
2018-03-25T03:15:44.782Z,0
2018-03-25T03:16:44.522Z,0
2018-03-25T03:17:44.012Z,0
2018-03-25T03:18:46.561Z,0
2018-03-25T03:19:44.219Z,0
2018-03-25T03:20:44.214Z,0
2018-03-25T03:21:43.693Z,0
2018-03-25T03:22:44.194Z,0
2018-03-25T03:23:44.451Z,0
2018-03-25T03:24:44.686Z,0
2018-03-25T03:25:44.676Z,0
2018-03-25T03:26:44.441Z,0
2018-03-25T03:27:44.395Z,0
2018-03-25T03:28:44.384Z,0
2018-03-25T03:29:44.633Z,0
2018-03-25T03:30:44.208Z,0
2018-03-25T03:31:44.129Z,0
2018-03-25T03:32:44.354Z,0
2018-03-25T03:33:44.397Z,0
2018-03-25T03:34:44.323Z,0
2018-03-25T03:35:44.584Z,0
2018-03-25T03:36:44.045Z,0
2018-03-25T03:37:44.290Z,0
2018-03-25T03:38:44.278Z,0
2018-03-25T03:39:44.537Z,0
2018-03-25T03:40:44.032Z,0
2018-03-25T03:41:44.005Z,0
2018-03-25T03:42:43.996Z,0
2018-03-25T03:43:43.713Z,0
2018-03-25T03:44:43.987Z,0
2018-03-25T03:45:43.976Z,0
2018-03-25T03:46:44.477Z,0
2018-03-25T03:47:44.477Z,0
2018-03-25T03:48:43.922Z,0
2018-03-25T03:49:44.379Z,0
2018-03-25T03:50:44.415Z,0
2018-03-25T03:51:44.397Z,0
2018-03-25T03:52:44.135Z,0
2018-03-25T03:53:44.130Z,0
2018-03-25T03:54:43.867Z,0
2018-03-25T03:55:44.097Z,0
2018-03-25T03:56:44.353Z,0
2018-03-25T03:57:43.846Z,0
2018-03-25T03:58:43.819Z,0
2018-03-25T03:59:44.063Z,0
2018-03-25T04:00:44.066Z,0
2018-03-25T04:01:44.057Z,0
2018-03-25T04:02:43.802Z,0
2018-03-25T04:03:44.021Z,0
2018-03-25T04:04:45.512Z,0
2018-03-25T04:05:44.006Z,0
2018-03-25T04:06:43.988Z,0
2018-03-25T04:07:43.791Z,0
2018-03-25T04:08:43.971Z,0
2018-03-25T04:09:43.720Z,0
2018-03-25T04:10:43.971Z,0
2018-03-25T04:11:43.943Z,0
2018-03-25T04:12:44.197Z,0
2018-03-25T04:13:43.921Z,0
2018-03-25T04:14:44.172Z,0
2018-03-25T04:15:43.917Z,0
2018-03-25T04:16:44.154Z,0
2018-03-25T04:17:43.632Z,0
2018-03-25T04:18:43.878Z,0
2018-03-25T04:19:45.667Z,0
2018-03-25T04:20:44.109Z,0
2018-03-25T04:21:43.604Z,0
2018-03-25T04:22:43.644Z,0
2018-03-25T04:23:44.084Z,0
2018-03-25T04:24:43.555Z,0
2018-03-25T04:25:43.818Z,0
2018-03-25T04:26:43.816Z,0
2018-03-25T04:27:44.052Z,0
2018-03-25T04:28:43.802Z,0
2018-03-25T04:29:43.503Z,0
2018-03-25T04:30:43.486Z,0
2018-03-25T04:31:43.762Z,0
2018-03-25T04:32:43.485Z,0
2018-03-25T04:33:43.216Z,0
2018-03-25T04:34:43.781Z,0
2018-03-25T04:35:43.691Z,0
2018-03-25T04:36:43.936Z,0
2018-03-25T04:37:43.702Z,0
2018-03-25T04:38:43.692Z,0
2018-03-25T04:39:43.915Z,0
2018-03-25T04:40:43.657Z,0
2018-03-25T04:41:43.649Z,0
2018-03-25T04:42:43.895Z,0
2018-03-25T04:43:43.869Z,0
2018-03-25T04:44:43.613Z,0
2018-03-25T04:45:43.332Z,0
2018-03-25T04:46:43.313Z,0
2018-03-25T04:47:43.836Z,0
2018-03-25T04:48:43.831Z,0
2018-03-25T04:49:46.245Z,0
2018-03-25T04:50:43.541Z,0
2018-03-25T04:51:44.077Z,0
2018-03-25T04:52:43.549Z,0
2018-03-25T04:53:43.527Z,0
2018-03-25T04:54:42.988Z,0
2018-03-25T04:55:43.480Z,0
2018-03-25T04:56:43.325Z,0
2018-03-25T04:57:43.500Z,0
2018-03-25T04:58:43.900Z,0
2018-03-25T04:59:43.180Z,0
2018-03-25T05:00:43.761Z,0
2018-03-25T05:01:43.480Z,0
2018-03-25T05:02:43.152Z,0
2018-03-25T05:03:43.024Z,0
2018-03-25T05:04:43.406Z,0
2018-03-25T05:05:43.175Z,0
2018-03-25T05:06:43.125Z,0
2018-03-25T05:07:43.364Z,5
2018-03-25T05:08:43.614Z,5
2018-03-25T05:09:43.354Z,5
2018-03-25T05:10:42.812Z,5
2018-03-25T05:11:43.593Z,5
2018-03-25T05:12:43.615Z,5
2018-03-25T05:13:43.318Z,5
2018-03-25T05:14:43.559Z,5
2018-03-25T05:15:43.526Z,5
2018-03-25T05:16:43.273Z,5
2018-03-25T05:17:42.536Z,10
2018-03-25T05:18:43.503Z,10
2018-03-25T05:19:43.234Z,10
2018-03-25T05:20:43.436Z,10
2018-03-25T05:21:43.207Z,10
2018-03-25T05:22:43.203Z,10
2018-03-25T05:23:42.936Z,15
2018-03-25T05:24:43.448Z,15
2018-03-25T05:25:43.198Z,15
2018-03-25T05:26:43.167Z,20
2018-03-25T05:27:43.147Z,20
2018-03-25T05:28:43.392Z,20
2018-03-25T05:29:43.398Z,25
2018-03-25T05:30:42.856Z,25
2018-03-25T05:31:43.420Z,25
2018-03-25T05:32:43.101Z,30
2018-03-25T05:33:43.259Z,30
2018-03-25T05:34:43.346Z,30
2018-03-25T05:35:43.149Z,35
2018-03-25T05:36:42.799Z,35
2018-03-25T05:37:43.320Z,35
2018-03-25T05:38:42.770Z,35
2018-03-25T05:39:43.032Z,40
2018-03-25T05:40:43.440Z,40
2018-03-25T05:41:43.000Z,40
2018-03-25T05:42:42.993Z,40
2018-03-25T05:43:42.983Z,45
2018-03-25T05:44:43.157Z,45
2018-03-25T05:45:43.222Z,50
2018-03-25T05:46:42.712Z,50
2018-03-25T05:47:43.200Z,55
2018-03-25T05:48:42.940Z,55
2018-03-25T05:49:42.929Z,60
2018-03-25T05:50:46.416Z,60
2018-03-25T05:51:42.989Z,65
2018-03-25T05:52:42.641Z,65
2018-03-25T05:53:42.886Z,70
2018-03-25T05:54:42.877Z,70
2018-03-25T05:55:42.893Z,70
2018-03-25T05:56:42.855Z,70
2018-03-25T05:57:43.112Z,75
2018-03-25T05:58:43.131Z,75
2018-03-25T05:59:42.335Z,75
2018-03-25T06:00:42.554Z,80
2018-03-25T06:01:42.813Z,80
2018-03-25T06:02:42.536Z,85
2018-03-25T06:03:43.050Z,85
2018-03-25T06:04:43.095Z,85
2018-03-25T06:05:42.779Z,85
2018-03-25T06:06:42.457Z,90
2018-03-25T06:07:43.004Z,90
2018-03-25T06:08:42.493Z,90
2018-03-25T06:09:42.726Z,95
2018-03-25T06:10:42.465Z,95
2018-03-25T06:11:42.787Z,95
2018-03-25T06:12:42.726Z,95
2018-03-25T06:13:42.437Z,100
2018-03-25T06:14:42.973Z,100
2018-03-25T06:15:43.081Z,105
2018-03-25T06:16:41.918Z,105
2018-03-25T06:17:42.419Z,110
2018-03-25T06:27:26.135Z,115
2018-03-25T06:28:25.666Z,115
2018-03-25T06:29:25.865Z,120
2018-03-25T06:30:25.582Z,120
2018-03-25T06:31:25.367Z,120
2018-03-25T06:32:25.797Z,120
2018-03-25T06:33:25.549Z,120
2018-03-25T06:34:25.833Z,125
2018-03-25T06:35:25.800Z,125
2018-03-25T06:36:25.258Z,125
2018-03-25T06:37:25.535Z,125
2018-03-25T06:38:25.808Z,130
2018-03-25T06:39:25.738Z,130
2018-03-25T06:40:25.497Z,130
2018-03-25T06:41:26.902Z,130
2018-03-25T06:42:25.479Z,130
2018-03-25T06:43:25.556Z,130
2018-03-25T06:44:25.749Z,130
2018-03-25T06:45:25.274Z,135
2018-03-25T06:46:25.433Z,135
2018-03-25T06:47:25.666Z,135
2018-03-25T06:48:25.471Z,135
2018-03-25T06:49:25.127Z,145
2018-03-25T06:50:25.802Z,155
2018-03-25T06:51:25.378Z,165
2018-03-25T06:52:25.114Z,170
2018-03-25T06:53:25.134Z,175
2018-03-25T06:54:25.473Z,185
2018-03-25T06:55:25.908Z,180
2018-03-25T06:56:25.597Z,180
2018-03-25T06:57:29.742Z,170
2018-03-25T06:58:25.084Z,170
2018-03-25T06:59:25.615Z,175
2018-03-25T07:00:25.313Z,180
2018-03-25T07:01:25.346Z,175
2018-03-25T07:02:25.293Z,175
2018-03-25T07:03:25.570Z,170
2018-03-25T07:04:25.554Z,180
2018-03-25T07:05:25.678Z,180
2018-03-25T07:06:25.046Z,175
2018-03-25T07:07:25.342Z,170
2018-03-25T07:08:25.261Z,175
2018-03-25T07:09:25.260Z,175
2018-03-25T07:10:26.292Z,175
2018-03-25T07:11:25.243Z,180
2018-03-25T07:12:25.307Z,180
2018-03-25T07:13:25.262Z,190
2018-03-25T07:14:25.534Z,205
2018-03-25T07:15:25.285Z,215
2018-03-25T07:16:25.506Z,225
2018-03-25T07:17:25.469Z,230
2018-03-25T07:18:25.235Z,235
2018-03-25T07:19:24.940Z,235
2018-03-25T07:20:25.016Z,235
2018-03-25T07:21:25.190Z,240
2018-03-25T07:22:25.194Z,235
2018-03-25T07:23:24.974Z,240
2018-03-25T07:24:25.227Z,240
2018-03-25T07:25:25.173Z,245
2018-03-25T07:26:25.178Z,255
2018-03-25T07:27:28.975Z,255
2018-03-25T07:28:25.206Z,250
2018-03-25T07:29:25.170Z,250
2018-03-25T07:30:25.172Z,255
2018-03-25T07:31:25.434Z,255
2018-03-25T07:32:25.417Z,260
2018-03-25T07:33:25.166Z,255
2018-03-25T07:34:25.479Z,260
2018-03-25T07:35:25.340Z,260
2018-03-25T07:36:24.408Z,260
2018-03-25T07:37:24.939Z,260
2018-03-25T07:38:25.166Z,260
2018-03-25T07:39:25.405Z,255
2018-03-25T07:40:25.085Z,255
2018-03-25T07:41:24.952Z,255
2018-03-25T07:42:25.426Z,255
2018-03-25T07:43:25.161Z,250
2018-03-25T07:44:25.190Z,250
2018-03-25T07:45:25.360Z,255
2018-03-25T07:46:24.908Z,250
2018-03-25T07:47:25.437Z,250
2018-03-25T07:48:24.650Z,250
2018-03-25T07:49:25.407Z,255
2018-03-25T07:50:25.290Z,255
2018-03-25T07:51:24.982Z,250
2018-03-25T07:52:24.908Z,255
2018-03-25T07:53:25.432Z,250
2018-03-25T07:54:25.074Z,260
2018-03-25T07:55:24.662Z,255
2018-03-25T07:56:24.918Z,255
2018-03-25T07:57:25.474Z,255
2018-03-25T07:58:25.522Z,255
2018-03-25T07:59:25.174Z,255
2018-03-25T08:00:25.166Z,255
2018-03-25T08:01:25.219Z,260
2018-03-25T08:02:24.961Z,260
2018-03-25T08:03:25.599Z,255
2018-03-25T08:04:24.927Z,260
2018-03-25T08:05:25.234Z,255
2018-03-25T08:06:25.417Z,260
2018-03-25T08:07:25.180Z,260
2018-03-25T08:08:25.185Z,265
2018-03-25T08:09:25.187Z,265
2018-03-25T08:10:25.219Z,260
2018-03-25T08:11:24.923Z,260
2018-03-25T08:12:25.187Z,255
2018-03-25T08:13:24.980Z,250
2018-03-25T08:14:25.195Z,250
2018-03-25T08:15:25.433Z,255
2018-03-25T08:16:25.193Z,250
2018-03-25T08:17:25.185Z,255
2018-03-25T08:18:26.020Z,255
2018-03-25T08:19:24.706Z,255
2018-03-25T08:20:25.195Z,255
2018-03-25T08:21:25.452Z,255
2018-03-25T08:22:25.451Z,255
2018-03-25T08:23:25.461Z,250
2018-03-25T08:24:24.696Z,250
2018-03-25T08:25:25.210Z,250
2018-03-25T08:26:25.341Z,255
2018-03-25T08:27:25.215Z,250
2018-03-25T08:28:26.072Z,250
2018-03-25T08:29:25.241Z,250
2018-03-25T08:30:25.472Z,250
2018-03-25T08:31:25.218Z,245
2018-03-25T08:32:25.064Z,250
2018-03-25T08:33:25.491Z,245
2018-03-25T08:34:25.258Z,245
2018-03-25T08:35:25.232Z,245
2018-03-25T08:36:24.967Z,245
2018-03-25T08:37:25.223Z,245
2018-03-25T08:38:25.498Z,240
2018-03-25T08:39:25.476Z,245
2018-03-25T08:40:25.019Z,240
2018-03-25T08:41:24.975Z,240
2018-03-25T08:42:24.992Z,245
2018-03-25T08:43:25.224Z,245
2018-03-25T08:44:25.223Z,250
2018-03-25T08:45:24.983Z,245
2018-03-25T08:46:25.500Z,245
2018-03-25T08:47:25.477Z,245
2018-03-25T08:48:25.491Z,245
2018-03-25T08:49:24.967Z,245
2018-03-25T08:50:25.617Z,245
2018-03-25T08:51:25.233Z,250
2018-03-25T08:52:25.476Z,250
2018-03-25T08:53:24.961Z,250
2018-03-25T08:54:24.723Z,250
2018-03-25T08:55:25.450Z,250
2018-03-25T08:56:25.542Z,255
2018-03-25T08:57:25.211Z,255
2018-03-25T08:58:26.334Z,255
2018-03-25T08:59:24.454Z,255
2018-03-25T09:00:25.458Z,255
2018-03-25T09:01:24.940Z,255
2018-03-25T09:02:25.456Z,255
2018-03-25T09:03:24.943Z,255
2018-03-25T09:04:25.223Z,255
2018-03-25T09:05:25.184Z,255
2018-03-25T09:06:25.448Z,255
2018-03-25T09:07:25.180Z,255
2018-03-25T09:08:24.923Z,255
2018-03-25T09:09:25.457Z,255
2018-03-25T09:10:25.691Z,255
2018-03-25T09:11:25.231Z,255
2018-03-25T09:12:25.211Z,255
2018-03-25T09:13:25.171Z,255
2018-03-25T09:14:25.432Z,255
2018-03-25T09:15:24.687Z,255
2018-03-25T09:16:25.469Z,255
2018-03-25T09:17:25.425Z,250
2018-03-25T09:18:25.178Z,250
2018-03-25T09:19:24.908Z,250
2018-03-25T09:20:25.605Z,250
2018-03-25T09:21:25.194Z,250
2018-03-25T09:22:24.911Z,250
2018-03-25T09:23:25.151Z,250
2018-03-25T09:24:25.403Z,250
2018-03-25T09:25:24.876Z,245
2018-03-25T09:26:25.138Z,245
2018-03-25T09:27:24.929Z,245
2018-03-25T09:28:27.649Z,245
2018-03-25T09:29:24.916Z,245
2018-03-25T09:30:24.940Z,240
2018-03-25T09:31:25.139Z,240
2018-03-25T09:32:24.859Z,240
2018-03-25T09:33:25.124Z,240
2018-03-25T09:34:25.406Z,240
2018-03-25T09:35:24.974Z,240
2018-03-25T09:36:25.136Z,240
2018-03-25T09:37:25.551Z,240
2018-03-25T09:38:25.469Z,240
2018-03-25T09:39:25.362Z,240
2018-03-25T09:40:25.236Z,240
2018-03-25T09:41:25.367Z,240
2018-03-25T09:42:24.838Z,240
2018-03-25T09:43:24.849Z,240
2018-03-25T09:44:25.356Z,240
2018-03-25T09:45:25.199Z,240
2018-03-25T09:46:25.134Z,240
2018-03-25T09:47:25.087Z,240
2018-03-25T09:48:25.079Z,240
2018-03-25T09:49:24.626Z,240
2018-03-25T09:50:25.313Z,240
2018-03-25T09:51:25.077Z,235
2018-03-25T09:52:25.087Z,235
2018-03-25T09:53:25.230Z,235
2018-03-25T09:54:24.808Z,235
2018-03-25T09:55:24.804Z,235
2018-03-25T09:56:25.094Z,235
2018-03-25T09:57:24.827Z,235
2018-03-25T09:58:25.343Z,235
2018-03-25T09:59:30.555Z,235
2018-03-25T10:00:24.921Z,235
2018-03-25T10:01:24.848Z,235
2018-03-25T10:02:25.046Z,235
2018-03-25T10:03:25.046Z,235
2018-03-25T10:04:25.308Z,235
2018-03-25T10:05:25.228Z,235
2018-03-25T10:06:24.770Z,230
2018-03-25T10:07:25.338Z,230
2018-03-25T10:08:24.769Z,230
2018-03-25T10:09:24.780Z,230
2018-03-25T10:10:25.091Z,230
2018-03-25T10:11:24.766Z,230
2018-03-25T10:12:25.271Z,230
2018-03-25T10:13:25.011Z,225
2018-03-25T10:14:24.999Z,225
2018-03-25T10:15:25.634Z,225
2018-03-25T10:16:25.035Z,225
2018-03-25T10:17:24.515Z,225
2018-03-25T10:18:24.999Z,225
2018-03-25T10:19:24.897Z,225
2018-03-25T10:20:25.071Z,225
2018-03-25T10:21:25.027Z,225
2018-03-25T10:22:24.736Z,225
2018-03-25T10:23:25.025Z,225
2018-03-25T10:24:25.010Z,225
2018-03-25T10:25:25.016Z,225
2018-03-25T10:26:24.738Z,220
2018-03-25T10:57:11.503Z,215
2018-03-25T10:58:12.017Z,210
2018-03-25T10:59:11.759Z,215
2018-03-25T11:00:12.849Z,215
2018-03-25T11:01:11.753Z,215
2018-03-25T11:02:11.813Z,215
2018-03-25T11:03:11.499Z,215
2018-03-25T11:04:11.726Z,215
2018-03-25T11:05:12.392Z,215
2018-03-25T11:06:11.735Z,215
2018-03-25T11:07:11.702Z,215
2018-03-25T11:08:12.012Z,215
2018-03-25T11:09:11.723Z,215
2018-03-25T11:10:13.102Z,215
2018-03-25T11:11:11.730Z,215
2018-03-25T11:12:13.884Z,215
2018-03-25T11:13:11.169Z,210
2018-03-25T11:14:11.702Z,210
2018-03-25T11:15:12.480Z,210
2018-03-25T11:16:12.018Z,210
2018-03-25T11:17:11.920Z,210
2018-03-25T11:18:11.681Z,210
2018-03-25T11:19:11.927Z,210
2018-03-25T11:20:13.165Z,215
2018-03-25T11:21:11.497Z,210
2018-03-25T11:22:11.696Z,210
2018-03-25T11:23:11.381Z,210
2018-03-25T11:24:11.156Z,210
2018-03-25T11:25:12.511Z,210
2018-03-25T11:26:11.715Z,210
2018-03-25T11:27:12.509Z,210
2018-03-25T11:28:11.649Z,210
2018-03-25T11:29:11.665Z,210
2018-03-25T11:30:12.889Z,210
2018-03-25T11:31:11.761Z,210
2018-03-25T11:32:11.893Z,210
2018-03-25T11:33:11.654Z,210
2018-03-25T11:34:11.886Z,210
2018-03-25T11:35:12.928Z,210
2018-03-25T11:36:11.663Z,210
2018-03-25T11:37:11.113Z,210
2018-03-25T11:38:11.885Z,210
2018-03-25T11:39:11.668Z,210
2018-03-25T11:40:12.508Z,210
2018-03-25T11:41:11.370Z,205
2018-03-25T11:42:13.721Z,205
2018-03-25T11:43:11.892Z,210
2018-03-25T11:44:11.707Z,210
2018-03-25T11:45:12.200Z,210
2018-03-25T11:46:12.051Z,210
2018-03-25T11:47:11.680Z,210
2018-03-25T11:48:11.456Z,210
2018-03-25T11:49:11.363Z,210
2018-03-25T11:50:12.010Z,210
2018-03-25T11:51:11.442Z,205
2018-03-25T11:52:11.624Z,210
2018-03-25T11:53:11.415Z,210
2018-03-25T11:54:11.850Z,210
2018-03-25T11:55:12.579Z,210
2018-03-25T11:56:11.948Z,210
2018-03-25T11:57:11.399Z,210
2018-03-25T11:58:11.655Z,210
2018-03-25T11:59:11.616Z,210
2018-03-25T12:00:12.947Z,210
2018-03-25T12:01:11.931Z,205
2018-03-25T12:02:11.847Z,210
2018-03-25T12:03:11.836Z,205
2018-03-25T12:04:11.348Z,210
2018-03-25T12:05:12.506Z,210
2018-03-25T12:06:11.839Z,210
2018-03-25T12:07:11.588Z,205
2018-03-25T12:08:11.628Z,210
2018-03-25T12:09:11.564Z,205
2018-03-25T12:10:12.654Z,205
2018-03-25T12:11:11.728Z,175
2018-03-25T12:12:12.097Z,185
2018-03-25T12:13:11.052Z,185
2018-03-25T12:14:11.840Z,205
2018-03-25T12:15:12.046Z,195
2018-03-25T12:16:11.333Z,175
2018-03-25T12:17:11.586Z,200
2018-03-25T12:18:11.859Z,190
2018-03-25T12:19:11.300Z,190
2018-03-25T12:20:12.711Z,185
2018-03-25T12:21:11.658Z,195
2018-03-25T12:22:11.291Z,205
2018-03-25T12:23:11.590Z,195
2018-03-25T12:24:11.062Z,200
2018-03-25T12:25:12.368Z,215
2018-03-25T12:26:11.800Z,215
2018-03-25T12:27:11.207Z,210
2018-03-25T12:28:12.142Z,210
2018-03-25T12:29:11.572Z,210
2018-03-25T12:30:12.927Z,210
2018-03-25T12:31:11.842Z,210
2018-03-25T12:32:11.546Z,200
2018-03-25T12:33:12.081Z,200
2018-03-25T12:34:11.556Z,210
2018-03-25T12:35:13.033Z,205
2018-03-25T12:36:11.635Z,210
2018-03-25T12:37:11.020Z,210
2018-03-25T12:38:11.921Z,210
2018-03-25T12:39:11.574Z,205
2018-03-25T12:40:12.362Z,200
2018-03-25T12:41:11.829Z,190
2018-03-25T12:42:11.788Z,195
2018-03-25T12:43:12.209Z,190
2018-03-25T12:44:11.040Z,190
2018-03-25T12:45:12.601Z,185
2018-03-25T12:46:11.020Z,190
2018-03-25T12:47:11.060Z,185
2018-03-25T12:48:11.268Z,185
2018-03-25T12:49:11.273Z,185
2018-03-25T12:50:12.468Z,190
2018-03-25T12:51:11.436Z,190
2018-03-25T12:52:11.537Z,195
2018-03-25T12:53:11.539Z,200
2018-03-25T12:54:11.572Z,205
2018-03-25T12:55:13.194Z,210
2018-03-25T12:56:11.344Z,215
2018-03-25T12:57:11.258Z,220
2018-03-25T12:58:11.519Z,225
2018-03-25T12:59:11.264Z,225
2018-03-25T13:00:11.980Z,220
2018-03-25T13:01:11.288Z,210
2018-03-25T13:02:11.244Z,210
2018-03-25T13:03:10.999Z,220
2018-03-25T13:04:11.244Z,220
2018-03-25T13:05:12.711Z,230
2018-03-25T13:06:11.388Z,230
2018-03-25T13:07:11.745Z,230
2018-03-25T13:08:11.504Z,235
2018-03-25T13:09:11.499Z,240
2018-03-25T13:10:13.027Z,235
2018-03-25T13:11:11.288Z,235
2018-03-25T13:12:11.498Z,230
2018-03-25T13:13:11.731Z,225
2018-03-25T13:14:11.234Z,220
2018-03-25T13:15:12.258Z,225
2018-03-25T13:16:11.626Z,225
2018-03-25T13:17:11.242Z,220
2018-03-25T13:18:11.512Z,225
2018-03-25T13:19:11.502Z,220
2018-03-25T13:20:12.547Z,215
2018-03-25T13:21:11.679Z,205
2018-03-25T13:22:11.738Z,195
2018-03-25T13:23:11.259Z,190
2018-03-25T13:24:11.223Z,190
2018-03-25T13:25:12.773Z,190
2018-03-25T13:26:11.601Z,200
2018-03-25T13:27:11.485Z,215
2018-03-25T13:28:11.763Z,215
2018-03-25T13:29:11.573Z,215
2018-03-25T13:30:12.808Z,220
2018-03-25T13:31:11.243Z,220
2018-03-25T13:32:11.556Z,215
2018-03-25T13:33:11.528Z,215
2018-03-25T13:34:11.014Z,215
2018-03-25T13:35:11.770Z,215
2018-03-25T13:36:12.037Z,215
2018-03-25T13:37:11.573Z,215
2018-03-25T13:38:11.507Z,215
2018-03-25T13:39:11.477Z,215
2018-03-25T13:40:12.211Z,215
2018-03-25T13:41:11.706Z,215
2018-03-25T13:42:11.514Z,215
2018-03-25T13:43:12.465Z,215
2018-03-25T13:44:11.479Z,215
2018-03-25T13:45:11.874Z,215
2018-03-25T13:46:11.819Z,215
2018-03-25T13:47:11.731Z,215
2018-03-25T13:48:11.735Z,215
2018-03-25T13:49:11.798Z,215
2018-03-25T13:50:12.854Z,215
2018-03-25T13:51:11.512Z,215
2018-03-25T13:52:11.738Z,215
2018-03-25T13:53:11.537Z,215
2018-03-25T13:54:11.318Z,215
2018-03-25T13:55:12.018Z,220
2018-03-25T13:56:11.614Z,220
2018-03-25T13:57:11.466Z,220
2018-03-25T13:58:11.462Z,220
2018-03-25T13:59:11.438Z,220
2018-03-25T14:00:12.295Z,220
2018-03-25T14:01:10.974Z,220
2018-03-25T14:02:11.473Z,220
2018-03-25T14:03:10.942Z,215
2018-03-25T14:04:11.207Z,215
2018-03-25T14:05:12.133Z,220
2018-03-25T14:06:10.730Z,220
2018-03-25T14:07:11.436Z,220
2018-03-25T14:08:11.202Z,220
2018-03-25T14:09:11.202Z,220
2018-03-25T14:10:12.725Z,215
2018-03-25T14:11:11.531Z,215
2018-03-25T14:12:11.492Z,210
2018-03-25T14:13:11.742Z,210
2018-03-25T14:14:11.467Z,195
2018-03-25T14:15:12.886Z,205
2018-03-25T14:16:10.943Z,210
2018-03-25T14:17:12.869Z,210
2018-03-25T14:18:12.151Z,210
2018-03-25T14:19:13.867Z,210
2018-03-25T14:20:12.856Z,210
2018-03-25T14:21:11.851Z,210
2018-03-25T14:22:13.422Z,210
2018-03-25T14:23:13.332Z,210
2018-03-25T14:24:13.922Z,210
2018-03-25T14:25:13.322Z,210
2018-03-25T14:26:11.656Z,210
2018-03-25T14:27:11.833Z,210
2018-03-25T14:28:11.275Z,210
2018-03-25T14:29:11.263Z,205
2018-03-25T14:30:12.633Z,210
2018-03-25T14:31:11.290Z,205
2018-03-25T14:32:11.495Z,205
2018-03-25T14:33:11.197Z,205
2018-03-25T14:34:11.720Z,200
2018-03-25T14:35:11.864Z,200
2018-03-25T14:36:10.994Z,200
2018-03-25T14:37:10.919Z,200
2018-03-25T14:38:10.687Z,200
2018-03-25T14:39:11.421Z,200
2018-03-25T14:40:12.949Z,195
2018-03-25T14:41:11.241Z,195
2018-03-25T14:42:11.174Z,195
2018-03-25T14:43:11.421Z,195
2018-03-25T14:44:11.721Z,195
2018-03-25T14:45:12.872Z,195
2018-03-25T14:46:11.550Z,195
2018-03-25T14:47:11.167Z,195
2018-03-25T14:48:11.918Z,190